Time;durP1;ratioP1;P1;durP2;ratioP2;P2;SDS_P1;SDS_P2;PMS_P1;PMS_P2;Temp;Humidity;BMP_temperature;BMP_pressure;BME280_temperature;BME280_humidity;BME280_pressure;Samples;Min_cycle;Max_cycle;Signal;HPM_P1;HPM_P2
2023/04/07 00:00:41;;;;;;;30.57;9.87;;;;;;;;;;5116192;28;21026;-73
2023/04/07 00:03:08;;;;;;;13.80;9.60;;;;;;;;;;5116335;28;20445;-73
2023/04/07 00:05:35;;;;;;;19.53;9.47;;;;;;;;;;5115793;28;20492;-73
2023/04/07 00:08:02;;;;;;;13.20;8.87;;;;;;;;;;5115932;28;20453;-73
2023/04/07 00:10:29;;;;;;;21.63;11.50;;;;;;;;;;5116274;27;20461;-71
2023/04/07 00:12:57;;;;;;;12.53;9.17;;;;;;;;;;5116023;28;20465;-71
2023/04/07 00:15:25;;;;;;;13.80;9.70;;;;;;;;;;5115824;28;20453;-71
2023/04/07 00:17:52;;;;;;;18.67;10.10;;;;;;;;;;5116023;28;20449;-71
2023/04/07 00:20:19;;;;;;;11.00;8.80;;;;;;;;;;5115819;28;20945;-71
2023/04/07 00:22:47;;;;;;;19.47;9.33;;;;;;;;;;5115760;28;20474;-71
2023/04/07 00:25:14;;;;;;;11.37;8.23;;;;;;;;;;5115195;27;20958;-71
2023/04/07 00:27:41;;;;;;;18.93;10.73;;;;;;;;;;5115756;28;20446;-71
2023/04/07 00:30:08;;;;;;;19.80;10.63;;;;;;;;;;5115538;27;20454;-71
2023/04/07 00:32:37;;;;;;;13.30;9.83;;;;;;;;;;5115415;28;20473;-71
2023/04/07 00:35:04;;;;;;;12.53;8.17;;;;;;;;;;5115409;28;20446;-71
2023/04/07 00:37:31;;;;;;;14.90;10.70;;;;;;;;;;5115441;28;20445;-72
2023/04/07 00:39:58;;;;;;;14.10;9.67;;;;;;;;;;5115003;27;20515;-72
2023/04/07 00:42:26;;;;;;;16.97;11.13;;;;;;;;;;5114629;28;20471;-71
2023/04/07 00:44:53;;;;;;;15.23;9.77;;;;;;;;;;5115090;28;20457;-72
2023/04/07 00:47:20;;;;;;;15.60;9.80;;;;;;;;;;5115365;28;20825;-72
2023/04/07 00:49:49;;;;;;;13.13;9.37;;;;;;;;;;5115390;28;20795;-72
2023/04/07 00:52:16;;;;;;;16.97;10.70;;;;;;;;;;5114981;28;20461;-72
2023/04/07 00:54:43;;;;;;;19.30;10.57;;;;;;;;;;5114290;28;20452;-72
2023/04/07 00:57:10;;;;;;;13.30;8.43;;;;;;;;;;5115138;28;20548;-71
2023/04/07 00:59:37;;;;;;;12.83;8.87;;;;;;;;;;5115031;28;20494;-72
2023/04/07 01:02:08;;;;;;;19.90;11.23;;;;;;;;;;5114948;28;20476;-72
2023/04/07 01:04:39;;;;;;;18.43;10.53;;;;;;;;;;5114783;28;20460;-72
2023/04/07 01:07:12;;;;;;;15.17;9.90;;;;;;;;;;5115124;28;20458;-72
2023/04/07 01:09:43;;;;;;;17.70;9.90;;;;;;;;;;5114938;28;20446;-71
2023/04/07 01:12:13;;;;;;;16.40;8.90;;;;;;;;;;5114984;28;20492;-71
2023/04/07 01:14:42;;;;;;;13.90;9.87;;;;;;;;;;5114772;28;20454;-71
2023/04/07 01:17:10;;;;;;;18.70;10.50;;;;;;;;;;5114627;28;20472;-72
2023/04/07 01:19:38;;;;;;;13.00;8.53;;;;;;;;;;5114693;28;20485;-72
2023/04/07 01:22:08;;;;;;;27.90;10.67;;;;;;;;;;5114615;28;20572;-71
2023/04/07 01:24:42;;;;;;;13.30;8.83;;;;;;;;;;5114869;28;20802;-72
2023/04/07 01:27:15;;;;;;;13.93;9.70;;;;;;;;;;5114751;28;20499;-72
2023/04/07 01:29:47;;;;;;;10.93;7.53;;;;;;;;;;5114574;28;20449;-73
2023/04/07 01:32:15;;;;;;;16.93;9.57;;;;;;;;;;5114286;28;20474;-71
2023/04/07 01:34:42;;;;;;;17.40;10.83;;;;;;;;;;5114462;28;20503;-71
2023/04/07 01:37:10;;;;;;;16.83;10.23;;;;;;;;;;5114237;28;20453;-72
2023/04/07 01:39:38;;;;;;;14.40;9.40;;;;;;;;;;5114224;27;20489;-71
2023/04/07 01:42:07;;;;;;;13.30;9.07;;;;;;;;;;5114341;27;20474;-72
2023/04/07 01:44:34;;;;;;;14.70;10.00;;;;;;;;;;5113762;28;20951;-71
2023/04/07 01:47:03;;;;;;;14.63;9.00;;;;;;;;;;5114188;28;20462;-71
2023/04/07 01:49:31;;;;;;;14.13;9.67;;;;;;;;;;5114107;28;20453;-71
2023/04/07 01:51:58;;;;;;;20.80;9.33;;;;;;;;;;5113838;28;20518;-71
2023/04/07 01:54:26;;;;;;;14.77;10.33;;;;;;;;;;5113639;28;20457;-71
2023/04/07 01:56:58;;;;;;;12.07;8.90;;;;;;;;;;5114077;28;20491;-71
2023/04/07 01:59:25;;;;;;;13.10;9.70;;;;;;;;;;5113793;28;20492;-71
2023/04/07 02:01:52;;;;;;;13.90;9.13;;;;;;;;;;5113854;28;20477;-71
2023/04/07 02:04:26;;;;;;;16.30;9.87;;;;;;;;;;5113722;27;20456;-71
2023/04/07 02:06:55;;;;;;;14.60;10.10;;;;;;;;;;5114103;28;20570;-71
2023/04/07 02:09:23;;;;;;;14.90;10.90;;;;;;;;;;5113903;28;20457;-74
2023/04/07 02:11:51;;;;;;;15.77;10.00;;;;;;;;;;5114218;28;20470;-75
2023/04/07 02:14:20;;;;;;;13.40;8.77;;;;;;;;;;5114050;28;20477;-72
2023/04/07 02:16:47;;;;;;;14.53;9.97;;;;;;;;;;5113856;28;20446;-72
2023/04/07 02:19:14;;;;;;;14.60;9.10;;;;;;;;;;5113671;28;20488;-71
2023/04/07 02:21:44;;;;;;;15.43;9.33;;;;;;;;;;5113934;28;20469;-73
2023/04/07 02:24:21;;;;;;;14.57;9.33;;;;;;;;;;5113253;28;20946;-72
2023/04/07 02:26:49;;;;;;;19.07;10.37;;;;;;;;;;5113986;28;20881;-72
2023/04/07 02:29:16;;;;;;;16.60;9.67;;;;;;;;;;5113680;28;20450;-71
2023/04/07 02:31:43;;;;;;;16.10;9.50;;;;;;;;;;5113439;28;20469;-72
2023/04/07 02:34:10;;;;;;;14.10;9.97;;;;;;;;;;5113469;28;20453;-72
2023/04/07 02:36:37;;;;;;;15.97;10.53;;;;;;;;;;5113478;28;20445;-72
2023/04/07 02:39:05;;;;;;;10.87;8.67;;;;;;;;;;5113495;28;20485;-71
2023/04/07 02:41:33;;;;;;;11.43;7.83;;;;;;;;;;5113343;28;20474;-72
2023/04/07 02:44:00;;;;;;;17.97;9.77;;;;;;;;;;5113373;28;20965;-72
2023/04/07 02:46:27;;;;;;;15.03;9.80;;;;;;;;;;5113516;28;20457;-71
2023/04/07 02:48:54;;;;;;;16.60;9.27;;;;;;;;;;5113322;28;20454;-72
2023/04/07 02:51:21;;;;;;;14.30;9.03;;;;;;;;;;5113318;28;20997;-72
2023/04/07 02:53:48;;;;;;;20.80;11.87;;;;;;;;;;5112984;28;20893;-72
2023/04/07 02:56:17;;;;;;;12.73;8.20;;;;;;;;;;5113305;28;20456;-71
2023/04/07 02:58:44;;;;;;;14.53;9.87;;;;;;;;;;5113560;28;20945;-71
2023/04/07 03:01:11;;;;;;;15.30;10.53;;;;;;;;;;5113215;28;21000;-71
2023/04/07 03:03:38;;;;;;;17.73;10.07;;;;;;;;;;5113249;28;20445;-72
2023/04/07 03:06:06;;;;;;;16.20;10.63;;;;;;;;;;5117436;28;20460;-72
2023/04/07 03:08:33;;;;;;;16.03;9.70;;;;;;;;;;5117376;27;20449;-71
2023/04/07 03:11:00;;;;;;;14.03;9.67;;;;;;;;;;5117344;28;21002;-71
2023/04/07 03:13:29;;;;;;;13.80;9.50;;;;;;;;;;5116920;28;20454;-72
2023/04/07 03:15:56;;;;;;;17.73;9.03;;;;;;;;;;5117089;28;20451;-72
2023/04/07 03:18:24;;;;;;;12.90;9.53;;;;;;;;;;5116976;28;20450;-72
2023/04/07 03:20:51;;;;;;;14.60;10.67;;;;;;;;;;5116961;28;20493;-71
2023/04/07 03:23:19;;;;;;;13.10;9.83;;;;;;;;;;5116733;28;20465;-72
2023/04/07 03:25:46;;;;;;;18.60;10.50;;;;;;;;;;5116978;28;20894;-72
2023/04/07 03:28:13;;;;;;;16.73;10.40;;;;;;;;;;5116861;28;20536;-71
2023/04/07 03:30:41;;;;;;;13.57;9.93;;;;;;;;;;5116918;28;20449;-71
2023/04/07 03:33:09;;;;;;;13.40;8.57;;;;;;;;;;5116804;28;20787;-72
2023/04/07 03:35:36;;;;;;;14.97;11.37;;;;;;;;;;5116440;28;20450;-72
2023/04/07 03:38:03;;;;;;;14.60;9.30;;;;;;;;;;5116770;28;20537;-72
2023/04/07 03:40:32;;;;;;;15.67;10.00;;;;;;;;;;5116451;28;20488;-72
2023/04/07 03:42:59;;;;;;;14.67;10.83;;;;;;;;;;5116493;28;21018;-71
2023/04/07 03:45:26;;;;;;;19.83;11.70;;;;;;;;;;5116203;28;20480;-71
2023/04/07 03:47:55;;;;;;;20.70;11.37;;;;;;;;;;5116687;28;20460;-71
2023/04/07 03:50:22;;;;;;;13.63;9.60;;;;;;;;;;5116596;28;21043;-72
2023/04/07 03:52:49;;;;;;;18.07;10.73;;;;;;;;;;5116399;28;20549;-72
2023/04/07 03:55:16;;;;;;;25.00;10.50;;;;;;;;;;5115850;28;20452;-72
2023/04/07 03:57:43;;;;;;;17.47;13.43;;;;;;;;;;5116461;28;20453;-72
2023/04/07 04:00:11;;;;;;;17.70;11.80;;;;;;;;;;5116222;28;20485;-72
2023/04/07 04:02:38;;;;;;;14.10;10.23;;;;;;;;;;5116166;28;20531;-72
2023/04/07 04:05:07;;;;;;;15.80;10.20;;;;;;;;;;5116142;28;20433;-74
2023/04/07 04:07:34;;;;;;;31.00;18.10;;;;;;;;;;5116204;28;20945;-72
2023/04/07 04:10:02;;;;;;;17.73;12.23;;;;;;;;;;5116144;28;20832;-74
2023/04/07 04:12:29;;;;;;;21.47;12.50;;;;;;;;;;5116467;28;20497;-74
2023/04/07 04:14:57;;;;;;;18.77;12.67;;;;;;;;;;5116631;28;20473;-75
2023/04/07 04:17:24;;;;;;;32.47;14.50;;;;;;;;;;5116264;28;20438;-75
2023/04/07 04:19:51;;;;;;;23.13;13.67;;;;;;;;;;5116685;28;20469;-75
2023/04/07 04:22:20;;;;;;;21.33;14.47;;;;;;;;;;5116283;28;21065;-72
2023/04/07 04:24:47;;;;;;;20.60;14.27;;;;;;;;;;5115448;28;20438;-72
2023/04/07 04:27:14;;;;;;;20.80;12.60;;;;;;;;;;5115835;28;20461;-72
2023/04/07 04:29:41;;;;;;;21.30;12.20;;;;;;;;;;5115836;28;20437;-72
2023/04/07 04:32:08;;;;;;;22.10;13.20;;;;;;;;;;5115921;28;20469;-72
2023/04/07 04:34:35;;;;;;;22.23;11.20;;;;;;;;;;5115304;28;20465;-72
2023/04/07 04:37:02;;;;;;;22.77;10.43;;;;;;;;;;5115570;28;20817;-71
2023/04/07 04:39:31;;;;;;;15.83;10.70;;;;;;;;;;5115342;28;20493;-72
2023/04/07 04:41:58;;;;;;;23.13;11.43;;;;;;;;;;5115297;28;20477;-71
2023/04/07 04:44:25;;;;;;;22.30;13.67;;;;;;;;;;5115152;28;20464;-72
2023/04/07 04:46:52;;;;;;;23.40;13.97;;;;;;;;;;5115531;28;20950;-71
2023/04/07 04:49:20;;;;;;;24.63;12.73;;;;;;;;;;5115227;28;20457;-71
2023/04/07 04:51:47;;;;;;;23.73;12.40;;;;;;;;;;5115214;28;20472;-72
2023/04/07 04:54:14;;;;;;;13.07;9.00;;;;;;;;;;5114480;28;20913;-72
2023/04/07 04:56:42;;;;;;;17.10;11.10;;;;;;;;;;5115212;28;20893;-72
2023/04/07 04:59:09;;;;;;;19.50;12.40;;;;;;;;;;5115031;28;20813;-73
2023/04/07 05:01:36;;;;;;;22.57;12.50;;;;;;;;;;5114965;28;20497;-72
2023/04/07 05:04:04;;;;;;;26.00;14.37;;;;;;;;;;5114876;28;20943;-72
2023/04/07 05:06:31;;;;;;;20.23;12.93;;;;;;;;;;5114970;28;20453;-72
2023/04/07 05:08:58;;;;;;;16.70;11.40;;;;;;;;;;5115040;28;20816;-72
2023/04/07 05:11:25;;;;;;;14.80;9.90;;;;;;;;;;5114820;28;20477;-72
2023/04/07 05:13:54;;;;;;;21.27;9.97;;;;;;;;;;5114747;28;20473;-72
2023/04/07 05:16:21;;;;;;;17.40;12.07;;;;;;;;;;5114684;28;20457;-72
2023/04/07 05:18:48;;;;;;;20.53;12.87;;;;;;;;;;5114898;28;20438;-72
2023/04/07 05:21:15;;;;;;;21.73;14.07;;;;;;;;;;5114553;28;20485;-72
2023/04/07 05:23:42;;;;;;;19.03;12.00;;;;;;;;;;5114273;28;20810;-72
2023/04/07 05:26:09;;;;;;;19.40;12.90;;;;;;;;;;5114701;28;20460;-71
2023/04/07 05:28:36;;;;;;;15.60;10.37;;;;;;;;;;5114350;28;20935;-71
2023/04/07 05:31:05;;;;;;;18.30;10.50;;;;;;;;;;5114991;28;20822;-71
2023/04/07 05:33:33;;;;;;;16.60;10.93;;;;;;;;;;5114310;28;20461;-71
2023/04/07 05:36:01;;;;;;;17.40;11.50;;;;;;;;;;5114114;28;20469;-71
2023/04/07 05:38:28;;;;;;;20.20;13.13;;;;;;;;;;5114225;27;20466;-71
2023/04/07 05:40:55;;;;;;;19.23;11.10;;;;;;;;;;5114172;28;20493;-72
2023/04/07 05:43:22;;;;;;;21.17;11.97;;;;;;;;;;5114245;28;20454;-71
2023/04/07 05:45:49;;;;;;;13.60;9.57;;;;;;;;;;5114175;28;20469;-71
2023/04/07 05:48:18;;;;;;;17.53;9.40;;;;;;;;;;5114106;28;20486;-72
2023/04/07 05:50:45;;;;;;;14.20;10.73;;;;;;;;;;5114204;28;20811;-72
2023/04/07 05:53:12;;;;;;;11.60;8.90;;;;;;;;;;5114007;28;20449;-72
2023/04/07 05:55:39;;;;;;;11.90;9.00;;;;;;;;;;5113744;28;20958;-72
2023/04/07 05:58:07;;;;;;;11.37;8.20;;;;;;;;;;5114376;28;20521;-72
2023/04/07 06:00:34;;;;;;;13.47;9.63;;;;;;;;;;5114021;28;20477;-72
2023/04/07 06:03:02;;;;;;;12.37;7.60;;;;;;;;;;5113791;28;20477;-72
2023/04/07 06:05:31;;;;;;;14.93;10.00;;;;;;;;;;5112815;28;20478;-72
2023/04/07 06:07:58;;;;;;;15.40;9.63;;;;;;;;;;5113842;28;20475;-71
2023/04/07 06:10:25;;;;;;;16.10;9.80;;;;;;;;;;5113857;28;20456;-72
2023/04/07 06:12:52;;;;;;;14.77;10.33;;;;;;;;;;5113746;28;20516;-72
2023/04/07 06:15:19;;;;;;;17.77;9.63;;;;;;;;;;5113517;28;20446;-72
2023/04/07 06:17:46;;;;;;;15.57;9.10;;;;;;;;;;5113757;28;20457;-72
2023/04/07 06:20:14;;;;;;;10.77;7.80;;;;;;;;;;5113464;28;20477;-72
2023/04/07 06:22:42;;;;;;;11.10;7.77;;;;;;;;;;5113762;28;20998;-74
2023/04/07 06:25:10;;;;;;;10.70;8.63;;;;;;;;;;5112576;28;20502;-74
2023/04/07 06:27:37;;;;;;;10.50;9.50;;;;;;;;;;5112618;28;20502;-75
2023/04/07 06:30:05;;;;;;;9.97;8.47;;;;;;;;;;5112605;28;20438;-74
2023/04/07 06:32:32;;;;;;;11.10;9.40;;;;;;;;;;5112746;28;20882;-74
2023/04/07 06:34:59;;;;;;;10.90;9.73;;;;;;;;;;5112990;28;20437;-77
2023/04/07 06:37:26;;;;;;;9.60;7.97;;;;;;;;;;5112530;28;20446;-75
2023/04/07 06:39:55;;;;;;;10.07;8.97;;;;;;;;;;5115658;28;20453;-76
2023/04/07 06:42:22;;;;;;;10.73;9.00;;;;;;;;;;5117515;28;20985;-75
2023/04/07 06:44:49;;;;;;;9.30;8.40;;;;;;;;;;5117846;27;20461;-76
2023/04/07 06:47:16;;;;;;;9.53;8.57;;;;;;;;;;5117874;28;20453;-75
2023/04/07 06:49:43;;;;;;;11.27;9.00;;;;;;;;;;5118133;28;20965;-76
2023/04/07 06:52:10;;;;;;;9.87;8.70;;;;;;;;;;5117734;28;20470;-76
2023/04/07 06:54:37;;;;;;;12.43;10.87;;;;;;;;;;5117825;27;20481;-75
2023/04/07 06:57:10;;;;;;;14.90;13.30;;;;;;;;;;5117965;28;20460;-75
2023/04/07 06:59:37;;;;;;;14.90;9.53;;;;;;;;;;5118066;28;20442;-75
2023/04/07 07:02:06;;;;;;;10.30;9.30;;;;;;;;;;5117683;28;20489;-76
2023/04/07 07:04:33;;;;;;;9.97;8.87;;;;;;;;;;5118102;27;21010;-76
2023/04/07 07:07:00;;;;;;;9.77;8.87;;;;;;;;;;5117456;28;20464;-76
2023/04/07 07:09:27;;;;;;;10.27;9.07;;;;;;;;;;5117789;28;20449;-76
2023/04/07 07:11:54;;;;;;;11.83;8.73;;;;;;;;;;5117638;27;20477;-76
2023/04/07 07:14:23;;;;;;;9.10;8.20;;;;;;;;;;5117645;28;20445;-76
2023/04/07 07:16:50;;;;;;;8.40;7.50;;;;;;;;;;5117650;28;20951;-76
2023/04/07 07:19:17;;;;;;;10.27;8.30;;;;;;;;;;5117581;28;20464;-76
2023/04/07 07:21:44;;;;;;;12.27;9.17;;;;;;;;;;5117027;28;20504;-76
2023/04/07 07:24:11;;;;;;;10.03;8.17;;;;;;;;;;5117948;28;20441;-76
2023/04/07 07:26:40;;;;;;;8.00;7.20;;;;;;;;;;5117307;28;20459;-76
2023/04/07 07:29:07;;;;;;;8.07;7.00;;;;;;;;;;5116967;28;20438;-76
2023/04/07 07:31:36;;;;;;;7.97;7.03;;;;;;;;;;5117200;28;20830;-76
2023/04/07 07:34:03;;;;;;;8.93;7.83;;;;;;;;;;5117235;28;20458;-76
2023/04/07 07:36:31;;;;;;;11.77;8.87;;;;;;;;;;5117260;28;20903;-76
2023/04/07 07:38:58;;;;;;;8.20;7.43;;;;;;;;;;5116930;27;20566;-76
2023/04/07 07:41:26;;;;;;;8.50;7.23;;;;;;;;;;5117078;28;21005;-76
2023/04/07 07:43:53;;;;;;;9.17;7.20;;;;;;;;;;5116860;28;20531;-77
2023/04/07 07:46:20;;;;;;;7.07;6.40;;;;;;;;;;5117132;28;20873;-76
2023/04/07 07:48:49;;;;;;;7.80;7.00;;;;;;;;;;5116964;28;20887;-76
2023/04/07 07:51:17;;;;;;;6.53;5.93;;;;;;;;;;5116022;28;20473;-76
2023/04/07 07:53:44;;;;;;;7.17;6.47;;;;;;;;;;5116964;28;20457;-76
2023/04/07 07:56:11;;;;;;;6.90;6.20;;;;;;;;;;5116945;27;20438;-77
2023/04/07 07:58:38;;;;;;;9.37;7.30;;;;;;;;;;5116827;28;20805;-76
2023/04/07 08:01:05;;;;;;;8.87;7.57;;;;;;;;;;5116674;28;20485;-76
2023/04/07 08:03:33;;;;;;;10.50;9.13;;;;;;;;;;5116536;28;20454;-76
2023/04/07 08:06:02;;;;;;;8.30;6.93;;;;;;;;;;5116697;28;20884;-76
2023/04/07 08:08:29;;;;;;;9.77;7.83;;;;;;;;;;5116621;27;20454;-76
2023/04/07 08:10:56;;;;;;;9.37;7.77;;;;;;;;;;5116413;28;20446;-76
2023/04/07 08:13:23;;;;;;;7.73;6.93;;;;;;;;;;5116174;28;20456;-76
2023/04/07 08:15:50;;;;;;;9.60;8.10;;;;;;;;;;5116413;28;20458;-76
2023/04/07 08:18:17;;;;;;;6.80;6.10;;;;;;;;;;5116314;28;20449;-76
2023/04/07 08:20:44;;;;;;;9.23;7.10;;;;;;;;;;5116356;28;20481;-76
2023/04/07 08:23:13;;;;;;;9.30;7.23;;;;;;;;;;5115991;27;20461;-75
2023/04/07 08:25:40;;;;;;;11.70;8.63;;;;;;;;;;5115721;28;20915;-77
2023/04/07 08:28:07;;;;;;;8.17;7.37;;;;;;;;;;5115694;28;20469;-77
2023/04/07 08:30:34;;;;;;;7.60;6.73;;;;;;;;;;5115581;28;20807;-77
2023/04/07 08:33:02;;;;;;;7.60;6.30;;;;;;;;;;5115471;27;20470;-76
2023/04/07 08:35:29;;;;;;;7.80;7.10;;;;;;;;;;5115408;28;21020;-76
2023/04/07 08:37:56;;;;;;;9.47;7.50;;;;;;;;;;5115533;28;20519;-76
2023/04/07 08:40:25;;;;;;;8.57;7.70;;;;;;;;;;5115646;28;20949;-76
2023/04/07 08:42:52;;;;;;;9.03;7.70;;;;;;;;;;5115002;28;20511;-77
2023/04/07 08:45:19;;;;;;;9.00;7.43;;;;;;;;;;5115065;28;20454;-77
2023/04/07 08:47:47;;;;;;;8.90;7.10;;;;;;;;;;5115484;28;20446;-77
2023/04/07 08:50:17;;;;;;;7.97;7.17;;;;;;;;;;5115542;28;20863;-77
2023/04/07 08:52:46;;;;;;;8.90;7.83;;;;;;;;;;5115715;28;20977;-76
2023/04/07 08:55:14;;;;;;;6.70;6.00;;;;;;;;;;5115276;28;20453;-76
2023/04/07 08:57:42;;;;;;;7.53;6.73;;;;;;;;;;5115314;28;20448;-77
2023/04/07 09:00:10;;;;;;;8.97;8.07;;;;;;;;;;5115222;28;20453;-77
2023/04/07 09:02:38;;;;;;;10.90;9.60;;;;;;;;;;5114181;28;20492;-77
2023/04/07 09:05:07;;;;;;;9.80;7.43;;;;;;;;;;5114843;28;20453;-77
2023/04/07 09:07:35;;;;;;;9.60;6.63;;;;;;;;;;5114922;28;20456;-76
2023/04/07 09:10:02;;;;;;;8.37;7.43;;;;;;;;;;5114889;28;20445;-77
2023/04/07 09:12:30;;;;;;;9.03;8.00;;;;;;;;;;5114665;28;20470;-77
2023/04/07 09:14:58;;;;;;;10.97;9.87;;;;;;;;;;5114759;28;20950;-77
2023/04/07 09:17:26;;;;;;;15.50;13.90;;;;;;;;;;5115188;28;20938;-77
2023/04/07 09:19:53;;;;;;;14.97;9.40;;;;;;;;;;5115158;28;20483;-77
2023/04/07 09:22:35;;;;;;;9.60;8.60;;;;;;;;;;5114576;28;20490;-76
2023/04/07 09:25:10;;;;;;;8.63;6.50;;;;;;;;;;5114877;28;20514;-77
2023/04/07 09:27:37;;;;;;;7.43;6.07;;;;;;;;;;5115640;28;20450;-77
2023/04/07 09:30:13;;;;;;;10.57;6.87;;;;;;;;;;5115156;28;20446;-76
2023/04/07 09:32:41;;;;;;;12.73;6.13;;;;;;;;;;5115112;28;20469;-77
2023/04/07 09:35:08;;;;;;;7.23;6.50;;;;;;;;;;5115025;28;20448;-77
2023/04/07 09:37:36;;;;;;;10.17;8.60;;;;;;;;;;5114869;28;20458;-77
2023/04/07 09:40:03;;;;;;;10.03;6.80;;;;;;;;;;5114545;28;21015;-77
2023/04/07 09:42:31;;;;;;;7.30;6.10;;;;;;;;;;5114883;28;20550;-78
2023/04/07 09:44:58;;;;;;;7.27;6.50;;;;;;;;;;5113986;28;20469;-78
2023/04/07 09:47:32;;;;;;;7.40;6.70;;;;;;;;;;5114332;28;20939;-78
2023/04/07 09:50:05;;;;;;;7.63;6.70;;;;;;;;;;5114655;28;20460;-78
2023/04/07 09:52:48;;;;;;;7.77;6.97;;;;;;;;;;5114317;28;20915;-78
2023/04/07 09:55:16;;;;;;;8.60;7.60;;;;;;;;;;5114013;28;20441;-78
2023/04/07 09:57:44;;;;;;;7.50;6.70;;;;;;;;;;5114606;28;20446;-78
2023/04/07 10:00:13;;;;;;;7.77;7.07;;;;;;;;;;5114515;28;20457;-80
2023/04/07 10:02:42;;;;;;;10.50;9.30;;;;;;;;;;5113965;28;20493;-78
2023/04/07 10:05:10;;;;;;;7.70;6.50;;;;;;;;;;5114765;28;20458;-79
2023/04/07 10:07:38;;;;;;;7.93;7.13;;;;;;;;;;5118429;27;20457;-79
2023/04/07 10:10:07;;;;;;;7.57;6.40;;;;;;;;;;5114686;28;20446;-76
2023/04/07 10:12:38;;;;;;;7.07;6.20;;;;;;;;;;5113552;28;20470;-78
2023/04/07 10:15:06;;;;;;;6.87;5.67;;;;;;;;;;5114564;28;20458;-77
2023/04/07 10:17:36;;;;;;;6.90;5.97;;;;;;;;;;5114478;28;20808;-78
2023/04/07 10:20:08;;;;;;;7.50;5.70;;;;;;;;;;5114482;28;20445;-77
2023/04/07 10:22:36;;;;;;;6.67;5.97;;;;;;;;;;5114174;28;20568;-78
2023/04/07 10:25:08;;;;;;;6.03;5.43;;;;;;;;;;5114480;28;20549;-78
2023/04/07 10:27:41;;;;;;;6.93;5.40;;;;;;;;;;5118402;28;20461;-78
2023/04/07 10:30:14;;;;;;;10.10;6.00;;;;;;;;;;5117373;28;20465;-78
2023/04/07 10:32:47;;;;;;;7.13;6.50;;;;;;;;;;5116837;28;20477;-78
2023/04/07 10:35:16;;;;;;;6.93;6.23;;;;;;;;;;5116355;28;20463;-77
2023/04/07 10:38:03;;;;;;;5.97;5.40;;;;;;;;;;5113783;28;20458;-77
2023/04/07 10:40:33;;;;;;;8.57;6.57;;;;;;;;;;5114996;28;20461;-79
2023/04/07 10:43:01;;;;;;;6.40;5.90;;;;;;;;;;5118233;28;20489;-78
2023/04/07 10:45:53;;;;;;;7.93;6.67;;;;;;;;;;5117036;28;20453;-79
2023/04/07 10:48:21;;;;;;;8.67;6.00;;;;;;;;;;5118333;28;20439;-78
2023/04/07 10:51:09;;;;;;;8.10;6.50;;;;;;;;;;5117898;28;20454;-79
2023/04/07 10:53:38;;;;;;;6.33;5.73;;;;;;;;;;5118995;28;20529;-79
2023/04/07 10:56:05;;;;;;;6.67;6.07;;;;;;;;;;5118067;28;20845;-79
2023/04/07 10:58:36;;;;;;;8.63;7.73;;;;;;;;;;5114776;28;20454;-79
2023/04/07 11:01:20;;;;;;;7.60;6.90;;;;;;;;;;5116336;28;20481;-79
2023/04/07 11:04:00;;;;;;;8.00;7.00;;;;;;;;;;5115835;28;20438;-79
2023/04/07 11:06:28;;;;;;;6.80;6.10;;;;;;;;;;5116584;28;20430;-79
2023/04/07 11:08:56;;;;;;;8.93;6.43;;;;;;;;;;5119570;28;20485;-79
2023/04/07 11:11:37;;;;;;;6.30;5.70;;;;;;;;;;5117087;28;20462;-78
2023/04/07 11:14:04;;;;;;;6.33;5.30;;;;;;;;;;5116825;28;20510;-79
2023/04/07 11:16:42;;;;;;;7.43;5.80;;;;;;;;;;5115899;28;20982;-79
2023/04/07 11:19:10;;;;;;;6.50;5.90;;;;;;;;;;5116767;28;20976;-79
2023/04/07 11:21:37;;;;;;;6.77;5.50;;;;;;;;;;5116430;28;20805;-78
2023/04/07 11:24:06;;;;;;;6.77;6.07;;;;;;;;;;5116692;28;20458;-79
2023/04/07 11:26:38;;;;;;;8.93;5.97;;;;;;;;;;5121176;28;20946;-79
2023/04/07 11:29:05;;;;;;;7.83;6.40;;;;;;;;;;5122249;28;20479;-79
2023/04/07 11:31:32;;;;;;;7.43;5.50;;;;;;;;;;5120545;28;20560;-79
2023/04/07 11:34:00;;;;;;;5.30;4.90;;;;;;;;;;5119807;28;20773;-79
2023/04/07 11:36:28;;;;;;;8.90;7.27;;;;;;;;;;5119666;28;20479;-79
2023/04/07 11:38:56;;;;;;;6.93;6.23;;;;;;;;;;5120083;27;20464;-79
2023/04/07 11:41:26;;;;;;;6.53;5.63;;;;;;;;;;5119383;28;20469;-79
2023/04/07 11:44:04;;;;;;;6.70;5.37;;;;;;;;;;5119503;28;20532;-79
2023/04/07 11:46:31;;;;;;;6.57;5.93;;;;;;;;;;5120437;28;20499;-79
2023/04/07 11:49:09;;;;;;;7.67;6.97;;;;;;;;;;5119296;28;20453;-79
2023/04/07 11:51:36;;;;;;;6.80;6.20;;;;;;;;;;5120001;28;20445;-79
2023/04/07 11:54:03;;;;;;;9.13;6.53;;;;;;;;;;5119154;28;20446;-79
2023/04/07 11:56:41;;;;;;;9.10;6.57;;;;;;;;;;5120459;28;20445;-79
2023/04/07 11:59:08;;;;;;;6.33;5.60;;;;;;;;;;5120515;28;20452;-79
2023/04/07 12:01:40;;;;;;;8.17;6.70;;;;;;;;;;5119335;28;20476;-79
2023/04/07 12:04:07;;;;;;;9.23;6.60;;;;;;;;;;5119516;28;20446;-79
2023/04/07 12:06:37;;;;;;;8.83;6.17;;;;;;;;;;5119977;28;20450;-79
2023/04/07 12:09:05;;;;;;;7.47;6.27;;;;;;;;;;5120270;28;20449;-79
2023/04/07 12:11:34;;;;;;;5.77;5.23;;;;;;;;;;5120073;28;20560;-79
2023/04/07 12:14:03;;;;;;;6.87;5.83;;;;;;;;;;5119908;28;20457;-79
2023/04/07 12:16:31;;;;;;;7.03;6.20;;;;;;;;;;5121143;28;20479;-79
2023/04/07 12:18:58;;;;;;;6.10;5.50;;;;;;;;;;5119715;28;20441;-79
2023/04/07 12:21:25;;;;;;;6.00;5.40;;;;;;;;;;5119384;28;20563;-79
2023/04/07 12:23:52;;;;;;;6.93;5.47;;;;;;;;;;5120205;27;20565;-79
2023/04/07 12:26:20;;;;;;;7.03;5.87;;;;;;;;;;5120330;28;20461;-79
2023/04/07 12:28:49;;;;;;;6.30;5.03;;;;;;;;;;5120337;28;20454;-79
2023/04/07 12:31:16;;;;;;;6.63;5.90;;;;;;;;;;5119470;28;20835;-79
2023/04/07 12:33:43;;;;;;;6.30;5.70;;;;;;;;;;5120067;28;21011;-80
2023/04/07 12:36:10;;;;;;;6.10;5.33;;;;;;;;;;5119821;28;20453;-79
2023/04/07 12:38:37;;;;;;;5.80;5.27;;;;;;;;;;5120243;28;20453;-79
2023/04/07 12:41:05;;;;;;;6.23;5.63;;;;;;;;;;5119746;28;20473;-78
2023/04/07 12:43:36;;;;;;;6.00;5.50;;;;;;;;;;5122149;28;20497;-80
2023/04/07 12:46:05;;;;;;;6.40;5.63;;;;;;;;;;5119168;28;20458;-79
2023/04/07 12:48:32;;;;;;;6.00;5.40;;;;;;;;;;5118377;28;20438;-79
2023/04/07 12:50:59;;;;;;;6.40;5.57;;;;;;;;;;5118734;28;20450;-79
2023/04/07 12:53:28;;;;;;;15.70;5.87;;;;;;;;;;5117237;28;20454;-78
2023/04/07 12:55:56;;;;;;;6.33;5.63;;;;;;;;;;5117620;28;20537;-79
2023/04/07 12:58:23;;;;;;;6.40;5.30;;;;;;;;;;5116726;28;20465;-78
2023/04/07 13:00:51;;;;;;;6.87;6.10;;;;;;;;;;5116213;28;20460;-78
2023/04/07 13:03:19;;;;;;;5.73;5.20;;;;;;;;;;5116756;28;20580;-78
2023/04/07 13:05:47;;;;;;;6.13;5.53;;;;;;;;;;5116333;28;20453;-78
2023/04/07 13:08:15;;;;;;;8.00;6.10;;;;;;;;;;5116050;28;20453;-78
2023/04/07 13:10:43;;;;;;;6.87;5.07;;;;;;;;;;5115690;28;20456;-78
2023/04/07 13:13:10;;;;;;;8.00;5.53;;;;;;;;;;5115633;28;20533;-78
2023/04/07 13:15:37;;;;;;;5.10;4.23;;;;;;;;;;5116415;28;20454;-77
2023/04/07 13:18:05;;;;;;;6.43;5.27;;;;;;;;;;5114873;28;20969;-76
2023/04/07 13:20:33;;;;;;;5.37;4.63;;;;;;;;;;5114757;28;20510;-76
2023/04/07 13:23:01;;;;;;;5.53;5.03;;;;;;;;;;5114594;28;20481;-76
2023/04/07 13:25:28;;;;;;;5.50;5.00;;;;;;;;;;5114539;28;20466;-76
2023/04/07 13:27:55;;;;;;;5.63;5.03;;;;;;;;;;5114552;28;20461;-76
2023/04/07 13:30:22;;;;;;;5.60;4.70;;;;;;;;;;5114749;28;20450;-77
2023/04/07 13:32:49;;;;;;;6.20;4.63;;;;;;;;;;5115233;28;20954;-78
2023/04/07 13:35:17;;;;;;;4.83;4.33;;;;;;;;;;5115194;28;20769;-77
2023/04/07 13:37:45;;;;;;;5.80;4.77;;;;;;;;;;5115376;28;20449;-78
2023/04/07 13:40:13;;;;;;;5.90;5.10;;;;;;;;;;5115320;28;20457;-77
2023/04/07 13:42:40;;;;;;;5.37;4.87;;;;;;;;;;5116234;28;20496;-78
2023/04/07 13:45:08;;;;;;;6.00;5.43;;;;;;;;;;5114647;28;20470;-77
2023/04/07 13:47:36;;;;;;;6.20;5.60;;;;;;;;;;5114840;28;20497;-77
2023/04/07 13:50:04;;;;;;;7.37;5.53;;;;;;;;;;5115339;28;20521;-77
2023/04/07 13:52:34;;;;;;;5.13;4.23;;;;;;;;;;5119739;28;20488;-79
2023/04/07 13:55:04;;;;;;;5.83;5.27;;;;;;;;;;5124059;28;20438;-79
2023/04/07 13:57:32;;;;;;;6.17;5.00;;;;;;;;;;5124373;27;20461;-79
2023/04/07 14:00:00;;;;;;;7.20;4.50;;;;;;;;;;5121586;28;20533;-77
2023/04/07 14:02:28;;;;;;;6.20;5.50;;;;;;;;;;5115521;28;20488;-78
2023/04/07 14:04:56;;;;;;;7.40;5.30;;;;;;;;;;5115938;28;20462;-77
2023/04/07 14:07:23;;;;;;;5.40;4.90;;;;;;;;;;5115610;28;20544;-78
2023/04/07 14:09:51;;;;;;;5.87;4.27;;;;;;;;;;5116287;28;20455;-78
2023/04/07 14:12:20;;;;;;;6.17;4.97;;;;;;;;;;5115692;28;20978;-77
2023/04/07 14:14:49;;;;;;;6.30;5.27;;;;;;;;;;5116122;28;20802;-79
2023/04/07 14:17:16;;;;;;;7.20;5.87;;;;;;;;;;5116615;28;20457;-78
2023/04/07 14:19:45;;;;;;;5.93;4.67;;;;;;;;;;5116977;28;20549;-78
2023/04/07 14:22:12;;;;;;;5.17;4.67;;;;;;;;;;5118397;28;20482;-78
2023/04/07 14:24:39;;;;;;;5.33;4.53;;;;;;;;;;5119434;28;20489;-78
2023/04/07 14:27:06;;;;;;;6.80;5.40;;;;;;;;;;5119521;28;20875;-78
2023/04/07 14:29:35;;;;;;;5.57;4.17;;;;;;;;;;5117736;27;20480;-76
2023/04/07 14:32:02;;;;;;;4.70;4.17;;;;;;;;;;5113598;28;20469;-76
2023/04/07 14:34:29;;;;;;;6.10;5.30;;;;;;;;;;5113324;27;20449;-76
2023/04/07 14:36:57;;;;;;;5.60;4.30;;;;;;;;;;5113409;28;20544;-76
2023/04/07 14:39:25;;;;;;;5.60;5.00;;;;;;;;;;5113631;28;20449;-76